Hethersett, United Kingdom
Current Conditions -  °F | °C
As of 8:50 AM on Monday 22 Dec 2014 (Local Time) from EGSH Reporting Station
Few Clouds Few Clouds  
Wind Chill: 55°   Ceiling: Unl
Heat Index: 55°   Visibility: 6mi
Dew Point: 48°   Wind: 25mph
Humidity: 77%   Direction: 240°WSW
Pressure: 29.88"   Gusts: 37mph
Location:  52.6°N, 1.17°E
Report Text: EGSH 220850Z 24022G32KT 9999 FEW023 13/09 Q1012 NOSIG
Loading
Personal Weather Stations






























Interactive Weather Map New forecast layout! Learn more

10-Day Weather Forecast

Advertisements
Track Severe Weather on mobile